createdAt,value
2019-01-24T00:00:47.905Z,50.20
2019-01-24T00:03:20.427Z,53.90
2019-01-24T00:05:53.476Z,52.53
2019-01-24T00:08:25.440Z,52.97
2019-01-24T00:10:57.398Z,53.33
2019-01-24T00:13:29.124Z,51.27
2019-01-24T00:16:00.814Z,61.60
2019-01-24T00:18:32.910Z,46.97
2019-01-24T00:21:04.674Z,47.57
2019-01-24T00:23:36.376Z,48.67
2019-01-24T00:26:08.130Z,48.57
2019-01-24T00:28:40.092Z,53.40
2019-01-24T00:31:11.816Z,53.27
2019-01-24T00:33:43.577Z,56.43
2019-01-24T00:36:15.693Z,52.97
2019-01-24T00:38:47.543Z,52.43
2019-01-24T00:41:19.257Z,53.90
2019-01-24T00:43:51.022Z,54.63
2019-01-24T00:46:22.864Z,47.87
2019-01-24T00:48:54.555Z,55.27
2019-01-24T00:51:26.617Z,53.70
2019-01-24T00:53:58.304Z,51.30
2019-01-24T00:56:29.981Z,51.53
2019-01-24T00:59:01.691Z,53.27
2019-01-24T01:01:33.374Z,47.50
2019-01-24T01:04:05.083Z,50.87
2019-01-24T01:06:36.760Z,51.43
2019-01-24T01:09:08.657Z,51.17
2019-01-24T01:11:40.344Z,58.67
2019-01-24T01:14:12.035Z,54.83
2019-01-24T01:16:43.743Z,54.23
2019-01-24T01:19:15.427Z,53.30
2019-01-24T01:21:47.227Z,58.67
2019-01-24T01:24:18.919Z,56.97
2019-01-24T01:26:51.019Z,54.30
2019-01-24T01:29:22.779Z,54.80
2019-01-24T01:31:54.501Z,50.93
2019-01-24T01:34:26.162Z,50.97
2019-01-24T01:36:57.862Z,56.53
2019-01-24T01:39:29.552Z,52.40
2019-01-24T01:42:01.419Z,53.73
2019-01-24T01:44:33.442Z,59.43
2019-01-24T01:47:05.498Z,54.93
2019-01-24T01:49:37.177Z,55.57
2019-01-24T01:52:08.892Z,53.83
2019-01-24T01:54:40.579Z,56.87
2019-01-24T01:57:12.448Z,52.37
2019-01-24T01:59:44.139Z,50.23
2019-01-24T02:02:15.820Z,51.33
2019-01-24T02:04:47.511Z,47.17
2019-01-24T02:07:19.238Z,55.40
2019-01-24T02:09:50.914Z,54.83
2019-01-24T02:12:22.606Z,54.50
2019-01-24T02:14:54.322Z,51.17
2019-01-24T02:17:26.014Z,57.70
2019-01-24T02:19:57.696Z,56.73
2019-01-24T02:22:29.401Z,56.53
2019-01-24T02:25:01.088Z,45.93
2019-01-24T02:27:32.791Z,54.60
2019-01-24T02:30:23.851Z,55.10
2019-01-24T02:32:55.555Z,56.50
2019-01-24T02:35:27.313Z,53.80
2019-01-24T02:37:59.025Z,54.70
2019-01-24T02:40:30.743Z,54.70
2019-01-24T02:43:02.416Z,50.93
2019-01-24T02:45:34.151Z,54.23
2019-01-24T02:48:05.901Z,59.07
2019-01-24T02:50:37.630Z,53.60
2019-01-24T02:53:09.315Z,56.40
2019-01-24T02:55:41.041Z,59.77
2019-01-24T02:58:12.984Z,56.73
2019-01-24T03:00:44.689Z,55.57
2019-01-24T03:03:16.384Z,49.37
2019-01-24T03:05:48.103Z,64.93
2019-01-24T03:08:19.785Z,49.67
2019-01-24T03:10:51.504Z,52.77
2019-01-24T03:13:23.196Z,53.10
2019-01-24T03:15:54.897Z,62.90
2019-01-24T03:18:26.587Z,56.30
2019-01-24T03:20:58.278Z,56.87
2019-01-24T03:23:29.976Z,53.63
2019-01-24T03:26:01.671Z,51.77
2019-01-24T03:28:33.357Z,53.17
2019-01-24T03:31:05.049Z,50.27
2019-01-24T03:33:36.761Z,51.67
2019-01-24T03:36:08.455Z,55.37
2019-01-24T03:38:40.470Z,48.07
2019-01-24T03:41:12.153Z,52.07
2019-01-24T03:43:43.842Z,55.80
2019-01-24T03:46:15.534Z,55.30
2019-01-24T03:48:47.308Z,72.73
2019-01-24T03:51:18.983Z,49.57
2019-01-24T03:53:50.710Z,54.90
2019-01-24T03:56:22.768Z,46.70
2019-01-24T03:58:54.527Z,52.73
2019-01-24T04:01:26.218Z,57.20
2019-01-24T04:03:57.909Z,49.73
2019-01-24T04:06:29.610Z,56.93
2019-01-24T04:09:01.359Z,56.80
2019-01-24T04:11:33.137Z,57.30
2019-01-24T04:14:05.456Z,55.87
2019-01-24T04:16:37.164Z,50.77
2019-01-24T04:19:08.844Z,49.13
2019-01-24T04:21:40.538Z,57.50
2019-01-24T04:24:12.248Z,54.40
2019-01-24T04:26:43.927Z,53.87
2019-01-24T04:29:15.636Z,57.57
2019-01-24T04:31:47.320Z,58.33
2019-01-24T04:34:19.022Z,54.13
2019-01-24T04:36:50.714Z,57.50
2019-01-24T04:39:22.396Z,54.60
2019-01-24T04:41:54.858Z,62.67
2019-01-24T04:44:26.550Z,55.93
2019-01-24T04:46:58.627Z,57.07
2019-01-24T04:49:30.335Z,60.70
2019-01-24T04:52:02.034Z,59.17
2019-01-24T04:54:33.789Z,63.33
2019-01-24T04:57:05.503Z,57.70
2019-01-24T04:59:37.182Z,62.63
2019-01-24T05:02:08.880Z,60.20
2019-01-24T05:04:40.573Z,67.13
2019-01-24T05:07:12.249Z,54.47
2019-01-24T05:09:43.942Z,66.53
2019-01-24T05:12:15.620Z,59.33
2019-01-24T05:14:47.318Z,58.40
2019-01-24T05:17:19.012Z,61.80
2019-01-24T05:19:50.694Z,61.70
2019-01-24T05:22:22.818Z,63.77
2019-01-24T05:24:54.722Z,60.70
2019-01-24T05:27:26.416Z,56.40
2019-01-24T05:29:58.584Z,56.47
2019-01-24T05:32:30.306Z,59.17
2019-01-24T05:35:02.047Z,53.97
2019-01-24T05:37:33.796Z,62.77
2019-01-24T05:40:08.416Z,70.00
2019-01-24T05:42:40.112Z,72.50
2019-01-24T05:45:14.194Z,67.83
2019-01-24T05:47:46.261Z,74.43
2019-01-24T05:50:18.016Z,64.57
2019-01-24T05:52:49.712Z,60.77
2019-01-24T05:55:21.426Z,61.43
2019-01-24T05:57:53.120Z,66.10
2019-01-24T06:00:26.479Z,67.63
2019-01-24T06:02:58.239Z,60.57
2019-01-24T06:05:29.953Z,57.13
2019-01-24T06:08:01.985Z,64.07
2019-01-24T06:10:33.682Z,71.10
2019-01-24T06:13:05.370Z,66.03
2019-01-24T06:15:37.074Z,80.50
2019-01-24T06:18:08.766Z,67.17
2019-01-24T06:20:40.499Z,61.83
2019-01-24T06:23:12.223Z,65.73
2019-01-24T06:25:43.933Z,65.57
2019-01-24T06:28:15.618Z,68.33
2019-01-24T06:30:47.318Z,68.30
2019-01-24T06:33:18.998Z,63.80
2019-01-24T06:35:50.714Z,67.77
2019-01-24T06:38:22.393Z,62.47
2019-01-24T06:40:54.105Z,73.47
2019-01-24T06:43:25.787Z,66.73
2019-01-24T06:45:57.510Z,63.17
2019-01-24T06:48:29.191Z,66.40
2019-01-24T06:51:00.951Z,66.13
2019-01-24T06:53:32.638Z,70.73
2019-01-24T06:56:04.423Z,67.80
2019-01-24T06:58:36.433Z,58.50
2019-01-24T07:01:08.123Z,61.73
2019-01-24T07:03:39.812Z,58.33
2019-01-24T07:06:11.497Z,61.50
2019-01-24T07:08:43.269Z,54.07
2019-01-24T07:11:14.968Z,58.40
2019-01-24T07:13:46.770Z,62.53
2019-01-24T07:16:18.639Z,64.23
2019-01-24T07:18:50.385Z,63.80
2019-01-24T07:21:22.101Z,57.67
2019-01-24T07:23:54.121Z,55.13
2019-01-24T07:26:25.837Z,54.80
2019-01-24T07:28:57.533Z,54.97
2019-01-24T07:31:29.609Z,64.43
2019-01-24T07:34:01.297Z,57.47
2019-01-24T07:36:33.013Z,62.57
2019-01-24T07:39:07.004Z,58.50
2019-01-24T07:41:38.698Z,56.50
2019-01-24T07:44:10.397Z,56.33
2019-01-24T07:46:42.113Z,52.47
2019-01-24T07:49:13.793Z,55.33
2019-01-24T07:51:45.515Z,50.00
2019-01-24T07:54:17.279Z,60.43
2019-01-24T07:56:49.001Z,57.47
2019-01-24T07:59:20.677Z,54.67
2019-01-24T08:01:52.399Z,64.87
2019-01-24T08:04:24.117Z,51.00
2019-01-24T08:06:55.876Z,52.83
2019-01-24T08:09:27.574Z,51.37
2019-01-24T08:11:59.267Z,46.80
2019-01-24T08:14:30.959Z,48.07
2019-01-24T08:17:02.651Z,54.23
2019-01-24T08:19:34.400Z,53.87
2019-01-24T08:22:06.425Z,55.83
2019-01-24T08:24:38.120Z,54.20
2019-01-24T08:27:09.817Z,52.80
2019-01-24T08:29:41.499Z,53.60
2019-01-24T08:32:13.558Z,52.97
2019-01-24T08:34:45.339Z,53.47
2019-01-24T08:37:17.033Z,51.33
2019-01-24T08:39:48.813Z,54.23
2019-01-24T08:42:20.510Z,49.30
2019-01-24T08:44:52.201Z,54.63
2019-01-24T08:47:24.228Z,51.53
2019-01-24T08:49:56.189Z,56.20
2019-01-24T08:52:27.901Z,56.93
2019-01-24T08:54:59.675Z,52.50
2019-01-24T08:57:31.563Z,57.50
2019-01-24T09:00:05.263Z,53.90
2019-01-24T09:02:36.976Z,56.27
2019-01-24T09:05:09.011Z,47.63
2019-01-24T09:07:40.707Z,57.90
2019-01-24T09:10:28.733Z,49.73
2019-01-24T09:13:00.430Z,49.50
2019-01-24T09:15:32.782Z,45.20
2019-01-24T09:18:05.974Z,51.90
2019-01-24T09:20:37.741Z,51.40
2019-01-24T09:23:09.463Z,47.97
2019-01-24T09:25:41.156Z,46.83
2019-01-24T09:28:14.955Z,49.33
2019-01-24T09:30:46.288Z,48.17
2019-01-24T09:33:18.114Z,50.70
2019-01-24T09:35:49.804Z,51.40
2019-01-24T09:38:21.818Z,47.60
2019-01-24T09:40:53.532Z,48.17
2019-01-24T09:43:25.502Z,53.40
2019-01-24T09:45:57.378Z,45.70
2019-01-24T09:48:29.285Z,47.90
2019-01-24T09:51:01.355Z,50.40
2019-01-24T09:53:33.092Z,48.77
2019-01-24T09:56:04.825Z,51.37
2019-01-24T09:58:39.305Z,50.40
2019-01-24T10:01:11.099Z,46.57
2019-01-24T10:03:42.926Z,45.23
2019-01-24T10:06:14.887Z,46.23
2019-01-24T10:08:46.725Z,44.80
2019-01-24T10:11:23.465Z,53.53
2019-01-24T10:13:52.085Z,56.40
2019-01-24T10:16:23.767Z,54.97
2019-01-24T10:18:56.182Z,56.67
2019-01-24T10:21:27.980Z,58.57
2019-01-24T10:23:59.983Z,54.43
2019-01-24T10:26:31.817Z,52.77
2019-01-24T10:29:03.525Z,55.03
2019-01-24T10:31:40.078Z,61.70
2019-01-24T10:34:13.226Z,58.73
2019-01-24T10:36:44.928Z,57.23
2019-01-24T10:39:16.823Z,59.13
2019-01-24T10:41:48.572Z,46.23
2019-01-24T10:44:20.607Z,53.57
2019-01-24T10:46:52.596Z,48.97
2019-01-24T10:49:24.550Z,54.50
2019-01-24T10:51:56.686Z,53.10
2019-01-24T10:54:28.456Z,55.80
2019-01-24T10:57:00.267Z,58.17
2019-01-24T10:59:32.034Z,44.37
2019-01-24T11:02:03.752Z,45.57
2019-01-24T11:04:35.477Z,58.03
2019-01-24T11:07:07.379Z,52.63
2019-01-24T11:09:39.098Z,44.30
2019-01-24T11:12:10.822Z,45.17
2019-01-24T11:14:42.519Z,45.00
2019-01-24T11:17:14.288Z,46.63
2019-01-24T11:19:46.528Z,52.30
2019-01-24T11:22:18.498Z,63.27
2019-01-24T11:24:50.289Z,55.37
2019-01-24T11:27:22.109Z,50.50
2019-01-24T11:29:54.229Z,51.50
2019-01-24T11:32:26.867Z,49.87
2019-01-24T11:34:58.704Z,52.27
2019-01-24T11:37:30.390Z,48.97
2019-01-24T11:40:02.075Z,52.87
2019-01-24T11:42:33.909Z,64.40
2019-01-24T11:45:10.156Z,52.67
2019-01-24T11:47:42.338Z,57.90
2019-01-24T11:50:16.843Z,53.47
2019-01-24T11:52:48.801Z,48.77
2019-01-24T11:55:22.293Z,46.33
2019-01-24T11:57:54.513Z,46.10
2019-01-24T12:00:34.241Z,43.23
2019-01-24T12:03:07.019Z,50.80
2019-01-24T12:05:51.087Z,46.43
2019-01-24T12:08:22.891Z,46.03
2019-01-24T12:10:55.479Z,39.47
2019-01-24T12:13:27.423Z,42.73
2019-01-24T12:15:59.359Z,41.27
2019-01-24T12:18:31.175Z,42.87
2019-01-24T12:21:02.941Z,51.03
2019-01-24T12:23:34.681Z,65.07
2019-01-24T12:26:06.442Z,58.00
2019-01-24T12:28:38.166Z,56.40
2019-01-24T12:31:09.855Z,52.50
2019-01-24T12:33:41.833Z,54.33
2019-01-24T12:36:13.520Z,55.93
2019-01-24T12:38:45.475Z,49.57
2019-01-24T12:41:17.161Z,57.27
2019-01-24T12:43:48.873Z,48.10
2019-01-24T12:46:20.560Z,48.77
2019-01-24T12:48:52.297Z,48.73
2019-01-24T12:51:24.262Z,64.67
2019-01-24T12:53:55.996Z,59.53
2019-01-24T12:56:27.682Z,49.03
2019-01-24T12:58:59.462Z,52.93
2019-01-24T13:01:31.224Z,43.13
2019-01-24T13:04:02.937Z,59.80
2019-01-24T13:06:34.635Z,55.40
2019-01-24T13:09:07.745Z,49.23
2019-01-24T13:11:39.446Z,50.53
2019-01-24T13:14:11.213Z,47.37
2019-01-24T13:16:43.275Z,51.03
2019-01-24T13:19:14.956Z,57.53
2019-01-24T13:21:46.828Z,54.37
2019-01-24T13:24:18.603Z,58.23
2019-01-24T13:26:50.643Z,58.57
2019-01-24T13:29:22.353Z,54.60
2019-01-24T13:31:54.039Z,66.13
2019-01-24T13:34:25.750Z,55.57
2019-01-24T13:36:57.423Z,55.87
2019-01-24T13:39:29.174Z,59.13
2019-01-24T13:42:00.946Z,61.73
2019-01-24T13:44:32.652Z,66.47
2019-01-24T13:47:04.335Z,61.63
2019-01-24T13:49:36.088Z,65.40
2019-01-24T13:52:08.204Z,61.50
2019-01-24T13:54:40.151Z,60.30
2019-01-24T13:57:11.846Z,63.83
2019-01-24T13:59:43.670Z,63.10
2019-01-24T14:02:27.006Z,76.50
2019-01-24T14:04:58.708Z,74.80
2019-01-24T14:07:33.035Z,68.93
2019-01-24T14:10:06.325Z,64.07
2019-01-24T14:12:38.004Z,87.70
2019-01-24T14:15:18.588Z,63.10
2019-01-24T14:17:50.273Z,66.13
2019-01-24T14:20:22.752Z,66.23
2019-01-24T14:22:55.350Z,75.50
2019-01-24T14:25:27.038Z,68.03
2019-01-24T14:27:59.743Z,69.17
2019-01-24T14:30:31.538Z,74.07
2019-01-24T14:33:03.214Z,71.73
2019-01-24T14:35:35.379Z,71.80
2019-01-24T14:38:08.673Z,74.33
2019-01-24T14:40:40.350Z,70.93
2019-01-24T14:43:12.038Z,65.53
2019-01-24T14:45:43.748Z,70.03
2019-01-24T14:48:15.455Z,73.33
2019-01-24T14:50:47.161Z,69.83
2019-01-24T14:53:18.844Z,70.60
2019-01-24T14:55:50.798Z,69.30
2019-01-24T14:58:22.680Z,71.60
2019-01-24T15:00:59.378Z,71.90
2019-01-24T15:03:31.103Z,76.60
2019-01-24T15:06:04.975Z,67.53
2019-01-24T15:08:37.155Z,71.17
2019-01-24T15:11:09.395Z,67.43
2019-01-24T15:13:41.676Z,77.80
2019-01-24T15:16:13.385Z,72.40
2019-01-24T15:18:45.063Z,67.03
2019-01-24T15:21:16.742Z,77.13
2019-01-24T15:23:48.458Z,76.87
2019-01-24T15:26:20.511Z,77.93
2019-01-24T15:28:52.530Z,81.70
2019-01-24T15:31:24.655Z,80.73
2019-01-24T15:33:56.378Z,74.77
2019-01-24T15:36:28.068Z,82.07
2019-01-24T15:38:59.852Z,78.03
2019-01-24T15:41:31.649Z,91.07
2019-01-24T15:44:03.593Z,70.87
2019-01-24T15:46:35.348Z,75.23
2019-01-24T15:49:07.032Z,81.47
2019-01-24T15:51:38.765Z,85.67
2019-01-24T15:54:10.462Z,79.07
2019-01-24T15:56:42.179Z,76.40
2019-01-24T15:59:13.943Z,73.90
2019-01-24T16:01:45.635Z,80.70
2019-01-24T16:04:19.914Z,74.70
2019-01-24T16:06:51.083Z,80.67
2019-01-24T16:09:23.071Z,81.73
2019-01-24T16:11:54.797Z,80.13
2019-01-24T16:14:26.480Z,82.40
2019-01-24T16:16:58.826Z,77.00
2019-01-24T16:19:31.093Z,80.33
2019-01-24T16:22:03.589Z,76.50
2019-01-24T16:24:35.406Z,82.70
2019-01-24T16:27:07.621Z,76.33
2019-01-24T16:29:39.342Z,77.77
2019-01-24T16:32:11.028Z,80.67
2019-01-24T16:34:42.754Z,69.13
2019-01-24T16:37:15.163Z,77.83
2019-01-24T16:39:46.860Z,77.80
2019-01-24T16:42:18.674Z,77.00
2019-01-24T16:44:50.690Z,79.40
2019-01-24T16:47:22.399Z,77.90
2019-01-24T16:49:54.086Z,75.80
2019-01-24T16:52:25.780Z,76.23
2019-01-24T16:54:57.969Z,74.83
2019-01-24T16:57:29.935Z,74.23
2019-01-24T17:00:01.668Z,75.97
2019-01-24T17:02:33.761Z,71.47
2019-01-24T17:05:07.764Z,79.70
2019-01-24T17:07:39.847Z,76.53
2019-01-24T17:10:23.950Z,91.23
2019-01-24T17:12:56.469Z,76.07
2019-01-24T17:15:28.225Z,83.07
2019-01-24T17:18:00.597Z,87.30
2019-01-24T17:20:32.922Z,78.23
2019-01-24T17:23:05.506Z,87.03
2019-01-24T17:25:37.505Z,80.67
2019-01-24T17:28:09.236Z,76.63
2019-01-24T17:30:44.060Z,72.80
2019-01-24T17:33:16.068Z,75.87
2019-01-24T17:35:48.391Z,85.33
2019-01-24T17:38:23.899Z,78.73
2019-01-24T17:40:53.641Z,81.43
2019-01-24T17:43:25.415Z,64.40
2019-01-24T17:45:57.092Z,66.80
2019-01-24T17:48:28.787Z,72.17
2019-01-24T17:51:00.564Z,72.50
2019-01-24T17:53:32.613Z,69.90
2019-01-24T17:56:04.641Z,71.93
2019-01-24T17:58:36.313Z,58.07
2019-01-24T18:01:08.051Z,61.80
2019-01-24T18:03:39.748Z,58.60
2019-01-24T18:06:11.492Z,51.83
2019-01-24T18:08:43.355Z,50.00
2019-01-24T18:11:15.100Z,43.97
2019-01-24T18:13:46.800Z,49.77
2019-01-24T18:16:18.756Z,55.13
2019-01-24T18:18:50.427Z,59.70
2019-01-24T18:21:22.293Z,62.37
2019-01-24T18:23:54.298Z,55.97
2019-01-24T18:26:25.998Z,68.03
2019-01-24T18:28:58.208Z,52.93
2019-01-24T18:31:29.908Z,56.07
2019-01-24T18:34:01.659Z,48.50
2019-01-24T18:36:33.439Z,67.60
2019-01-24T18:39:08.483Z,63.87
2019-01-24T18:41:40.176Z,79.87
2019-01-24T18:44:11.858Z,75.63
2019-01-24T18:46:43.906Z,75.87
2019-01-24T18:49:15.658Z,74.80
2019-01-24T18:51:47.370Z,79.23
2019-01-24T18:54:19.060Z,75.60
2019-01-24T18:56:51.065Z,77.70
2019-01-24T18:59:23.037Z,76.03
2019-01-24T19:01:54.955Z,81.97
2019-01-24T19:04:27.686Z,76.07
2019-01-24T19:07:00.019Z,72.07
2019-01-24T19:09:32.064Z,64.50
2019-01-24T19:12:04.179Z,74.10
2019-01-24T19:14:35.938Z,67.90
2019-01-24T19:17:07.616Z,66.57
2019-01-24T19:19:42.182Z,72.63
2019-01-24T19:22:13.901Z,67.20
2019-01-24T19:24:45.596Z,74.70
2019-01-24T19:27:17.348Z,68.83
2019-01-24T19:29:49.043Z,67.67
2019-01-24T19:32:20.758Z,67.47
2019-01-24T19:34:52.698Z,65.40
2019-01-24T19:37:24.374Z,71.23
2019-01-24T19:39:56.078Z,72.53
2019-01-24T19:42:27.772Z,68.60
2019-01-24T19:44:59.515Z,69.47
2019-01-24T19:47:31.217Z,59.90
2019-01-24T19:50:02.959Z,67.87
2019-01-24T19:52:34.673Z,70.90
2019-01-24T19:55:10.513Z,60.57
2019-01-24T19:57:42.191Z,64.40
2019-01-24T20:00:25.318Z,63.50
2019-01-24T20:02:57.485Z,67.43
2019-01-24T20:05:29.160Z,57.67
2019-01-24T20:08:00.854Z,61.93
2019-01-24T20:10:32.602Z,58.70
2019-01-24T20:13:05.466Z,57.73
2019-01-24T20:15:37.223Z,58.60
2019-01-24T20:18:08.933Z,58.10
2019-01-24T20:20:40.660Z,56.70
2019-01-24T20:23:12.378Z,57.00
2019-01-24T20:25:44.160Z,53.00
2019-01-24T20:28:15.863Z,58.13
2019-01-24T20:30:49.827Z,56.63
2019-01-24T20:33:22.475Z,62.60
2019-01-24T20:35:54.934Z,59.93
2019-01-24T20:38:26.778Z,58.53
2019-01-24T20:40:58.804Z,61.93
2019-01-24T20:43:35.356Z,59.00
2019-01-24T20:46:04.453Z,54.27
2019-01-24T20:48:36.134Z,65.47
2019-01-24T20:51:07.822Z,64.20
2019-01-24T20:53:40.529Z,66.60
2019-01-24T20:56:12.994Z,62.93
2019-01-24T20:58:44.797Z,71.83
2019-01-24T21:01:16.519Z,70.23
2019-01-24T21:03:55.108Z,67.80
2019-01-24T21:06:21.673Z,69.70
2019-01-24T21:08:53.415Z,68.47
2019-01-24T21:11:25.406Z,64.17
2019-01-24T21:13:57.122Z,70.90
2019-01-24T21:16:28.806Z,68.83
2019-01-24T21:19:00.524Z,76.33
2019-01-24T21:21:32.415Z,69.07
2019-01-24T21:24:04.488Z,69.03
2019-01-24T21:26:36.357Z,61.33
2019-01-24T21:29:08.378Z,64.90
2019-01-24T21:31:40.344Z,64.23
2019-01-24T21:34:12.128Z,62.40
2019-01-24T21:36:43.896Z,63.97
2019-01-24T21:39:21.984Z,63.07
2019-01-24T21:41:49.004Z,65.37
2019-01-24T21:44:20.718Z,69.50
2019-01-24T21:46:52.571Z,60.37
2019-01-24T21:49:24.562Z,60.97
2019-01-24T21:51:56.236Z,61.47
2019-01-24T21:54:27.947Z,60.93
2019-01-24T21:56:59.642Z,62.30
2019-01-24T21:59:31.356Z,58.63
2019-01-24T22:02:03.096Z,63.53
2019-01-24T22:04:34.799Z,64.17
2019-01-24T22:07:06.793Z,61.93
2019-01-24T22:09:38.504Z,65.00
2019-01-24T22:12:10.249Z,63.37
2019-01-24T22:14:41.934Z,59.60
2019-01-24T22:17:13.635Z,59.33
2019-01-24T22:19:45.418Z,63.57
2019-01-24T22:22:17.098Z,69.03
2019-01-24T22:24:48.838Z,55.20
2019-01-24T22:27:20.590Z,57.93
2019-01-24T22:29:52.296Z,67.20
2019-01-24T22:32:24.017Z,61.37
2019-01-24T22:34:55.791Z,58.97
2019-01-24T22:37:27.513Z,62.33
2019-01-24T22:39:59.198Z,66.30
2019-01-24T22:42:30.989Z,60.93
2019-01-24T22:45:02.680Z,64.50
2019-01-24T22:47:34.365Z,65.80
2019-01-24T22:50:11.076Z,67.10
2019-01-24T22:52:43.057Z,61.30
2019-01-24T22:55:14.817Z,58.23
2019-01-24T22:57:46.512Z,67.07
2019-01-24T23:00:48.854Z,62.23
2019-01-24T23:03:25.828Z,66.73
2019-01-24T23:05:57.575Z,75.80
2019-01-24T23:08:29.560Z,66.63
2019-01-24T23:11:01.653Z,67.00
2019-01-24T23:13:33.374Z,72.83
2019-01-24T23:16:05.378Z,71.53
2019-01-24T23:18:37.116Z,66.70
2019-01-24T23:21:08.832Z,71.90
2019-01-24T23:23:40.554Z,64.57
2019-01-24T23:26:12.265Z,69.93
2019-01-24T23:28:43.984Z,72.00
2019-01-24T23:31:15.702Z,66.43
2019-01-24T23:33:47.423Z,70.30
2019-01-24T23:36:19.139Z,73.33
2019-01-24T23:38:50.931Z,66.90
2019-01-24T23:41:22.646Z,70.93
2019-01-24T23:43:54.385Z,68.60
2019-01-24T23:46:26.092Z,65.07
2019-01-24T23:48:57.809Z,61.50
2019-01-24T23:51:29.613Z,64.17
2019-01-24T23:54:01.435Z,69.63
2019-01-24T23:56:33.175Z,66.77
2019-01-24T23:59:05.145Z,68.53
